sensor_id;sensor_type;location;lat;lon;timestamp;P1;durP1;ratioP1;P2;durP2;ratioP2
34535;SDS011;20779;55.596;37.538;2022-08-11T00:01:19;2.33;;;0.95;;
34535;SDS011;20779;55.596;37.538;2022-08-11T00:03:51;3.35;;;1.10;;
34535;SDS011;20779;55.596;37.538;2022-08-11T00:06:36;2.20;;;1.00;;
34535;SDS011;20779;55.596;37.538;2022-08-11T00:09:04;5.32;;;1.05;;
34535;SDS011;20779;55.596;37.538;2022-08-11T00:11:35;2.60;;;1.20;;
34535;SDS011;20779;55.596;37.538;2022-08-11T00:14:32;3.63;;;0.90;;
34535;SDS011;20779;55.596;37.538;2022-08-11T00:17:00;2.33;;;1.17;;
34535;SDS011;20779;55.596;37.538;2022-08-11T00:19:32;3.42;;;1.13;;
34535;SDS011;20779;55.596;37.538;2022-08-11T00:22:03;1.92;;;0.90;;
34535;SDS011;20779;55.596;37.538;2022-08-11T00:24:40;4.43;;;1.50;;
34535;SDS011;20779;55.596;37.538;2022-08-11T00:27:07;4.13;;;1.17;;
34535;SDS011;20779;55.596;37.538;2022-08-11T00:29:33;2.72;;;1.10;;
34535;SDS011;20779;55.596;37.538;2022-08-11T00:32:00;7.70;;;1.60;;
34535;SDS011;20779;55.596;37.538;2022-08-11T00:34:33;2.28;;;1.33;;
34535;SDS011;20779;55.596;37.538;2022-08-11T00:39:33;4.10;;;1.65;;
34535;SDS011;20779;55.596;37.538;2022-08-11T00:51:08;7.10;;;1.23;;
34535;SDS011;20779;55.596;37.538;2022-08-11T00:53:58;2.83;;;0.95;;
34535;SDS011;20779;55.596;37.538;2022-08-11T01:16:56;2.00;;;1.27;;
34535;SDS011;20779;55.596;37.538;2022-08-11T01:54:04;3.03;;;1.20;;
34535;SDS011;20779;55.596;37.538;2022-08-11T02:11:25;4.57;;;1.10;;
34535;SDS011;20779;55.596;37.538;2022-08-11T02:14:01;1.98;;;1.10;;
34535;SDS011;20779;55.596;37.538;2022-08-11T02:23:51;4.18;;;1.20;;
34535;SDS011;20779;55.596;37.538;2022-08-11T02:54:00;1.88;;;1.20;;
34535;SDS011;20779;55.596;37.538;2022-08-11T02:56:43;3.53;;;1.20;;
34535;SDS011;20779;55.596;37.538;2022-08-11T02:59:23;3.28;;;1.50;;
34535;SDS011;20779;55.596;37.538;2022-08-11T03:07:33;1.45;;;0.90;;
34535;SDS011;20779;55.596;37.538;2022-08-11T03:13:47;8.88;;;1.10;;
34535;SDS011;20779;55.596;37.538;2022-08-11T03:23:08;2.10;;;1.02;;
34535;SDS011;20779;55.596;37.538;2022-08-11T03:25:59;4.90;;;1.10;;
34535;SDS011;20779;55.596;37.538;2022-08-11T03:28:43;2.63;;;1.20;;
34535;SDS011;20779;55.596;37.538;2022-08-11T03:34:00;2.25;;;1.02;;
34535;SDS011;20779;55.596;37.538;2022-08-11T03:39:15;2.28;;;1.08;;
34535;SDS011;20779;55.596;37.538;2022-08-11T03:42:22;6.03;;;1.10;;
34535;SDS011;20779;55.596;37.538;2022-08-11T03:47:53;4.53;;;1.60;;
34535;SDS011;20779;55.596;37.538;2022-08-11T03:51:01;5.85;;;1.17;;
34535;SDS011;20779;55.596;37.538;2022-08-11T04:12:17;3.97;;;1.55;;
34535;SDS011;20779;55.596;37.538;2022-08-11T04:27:45;16.98;;;2.25;;
34535;SDS011;20779;55.596;37.538;2022-08-11T04:31:05;5.60;;;1.60;;
34535;SDS011;20779;55.596;37.538;2022-08-11T04:52:27;6.60;;;1.30;;
34535;SDS011;20779;55.596;37.538;2022-08-11T04:59:00;6.65;;;1.20;;
34535;SDS011;20779;55.596;37.538;2022-08-11T05:02:44;2.97;;;1.20;;
34535;SDS011;20779;55.596;37.538;2022-08-11T05:05:52;8.85;;;1.75;;
34535;SDS011;20779;55.596;37.538;2022-08-11T05:14:39;5.43;;;1.30;;
34535;SDS011;20779;55.596;37.538;2022-08-11T05:17:35;4.38;;;1.13;;
34535;SDS011;20779;55.596;37.538;2022-08-11T05:20:49;6.05;;;1.38;;
34535;SDS011;20779;55.596;37.538;2022-08-11T05:23:57;4.47;;;1.40;;
34535;SDS011;20779;55.596;37.538;2022-08-11T05:26:51;4.72;;;1.30;;
34535;SDS011;20779;55.596;37.538;2022-08-11T05:29:39;5.68;;;1.70;;
34535;SDS011;20779;55.596;37.538;2022-08-11T05:32:24;7.63;;;1.45;;
34535;SDS011;20779;55.596;37.538;2022-08-11T05:35:37;5.63;;;1.70;;
34535;SDS011;20779;55.596;37.538;2022-08-11T05:38:17;3.00;;;1.30;;
34535;SDS011;20779;55.596;37.538;2022-08-11T05:41:06;11.40;;;1.92;;
34535;SDS011;20779;55.596;37.538;2022-08-11T05:43:59;5.05;;;1.17;;
34535;SDS011;20779;55.596;37.538;2022-08-11T05:46:45;3.17;;;1.50;;
34535;SDS011;20779;55.596;37.538;2022-08-11T05:49:31;5.38;;;1.20;;
34535;SDS011;20779;55.596;37.538;2022-08-11T05:52:21;4.75;;;1.40;;
34535;SDS011;20779;55.596;37.538;2022-08-11T05:55:08;4.67;;;1.30;;
34535;SDS011;20779;55.596;37.538;2022-08-11T05:58:04;4.07;;;1.50;;
34535;SDS011;20779;55.596;37.538;2022-08-11T06:00:42;4.03;;;2.03;;
34535;SDS011;20779;55.596;37.538;2022-08-11T06:03:11;7.13;;;1.40;;
34535;SDS011;20779;55.596;37.538;2022-08-11T06:08:18;5.30;;;1.33;;
34535;SDS011;20779;55.596;37.538;2022-08-11T06:11:01;5.13;;;1.27;;
34535;SDS011;20779;55.596;37.538;2022-08-11T06:13:29;5.25;;;1.42;;
34535;SDS011;20779;55.596;37.538;2022-08-11T06:15:57;3.85;;;1.70;;
34535;SDS011;20779;55.596;37.538;2022-08-11T06:18:24;11.70;;;1.80;;
34535;SDS011;20779;55.596;37.538;2022-08-11T06:20:53;2.83;;;1.30;;
34535;SDS011;20779;55.596;37.538;2022-08-11T06:23:22;4.00;;;1.35;;
34535;SDS011;20779;55.596;37.538;2022-08-11T06:25:56;11.45;;;1.50;;
34535;SDS011;20779;55.596;37.538;2022-08-11T06:28:28;4.88;;;1.35;;
34535;SDS011;20779;55.596;37.538;2022-08-11T06:30:57;3.20;;;1.02;;
34535;SDS011;20779;55.596;37.538;2022-08-11T06:33:34;4.05;;;1.20;;
34535;SDS011;20779;55.596;37.538;2022-08-11T06:42:13;5.82;;;1.40;;
34535;SDS011;20779;55.596;37.538;2022-08-11T06:45:23;6.50;;;1.65;;
34535;SDS011;20779;55.596;37.538;2022-08-11T06:48:01;5.28;;;1.55;;
34535;SDS011;20779;55.596;37.538;2022-08-11T06:50:30;5.60;;;1.42;;
34535;SDS011;20779;55.596;37.538;2022-08-11T06:53:17;4.75;;;1.27;;
34535;SDS011;20779;55.596;37.538;2022-08-11T06:55:45;8.48;;;1.45;;
34535;SDS011;20779;55.596;37.538;2022-08-11T06:58:33;7.38;;;1.33;;
34535;SDS011;20779;55.596;37.538;2022-08-11T07:01:57;4.28;;;1.40;;
34535;SDS011;20779;55.596;37.538;2022-08-11T07:07:25;4.00;;;1.45;;
34535;SDS011;20779;55.596;37.538;2022-08-11T07:14:24;5.70;;;1.30;;
34535;SDS011;20779;55.596;37.538;2022-08-11T07:17:13;2.45;;;1.20;;
34535;SDS011;20779;55.596;37.538;2022-08-11T07:19:47;4.35;;;1.25;;
34535;SDS011;20779;55.596;37.538;2022-08-11T07:22:37;7.93;;;1.85;;
34535;SDS011;20779;55.596;37.538;2022-08-11T07:25:24;5.90;;;1.55;;
34535;SDS011;20779;55.596;37.538;2022-08-11T07:28:11;5.93;;;1.17;;
34535;SDS011;20779;55.596;37.538;2022-08-11T07:31:09;5.78;;;1.33;;
34535;SDS011;20779;55.596;37.538;2022-08-11T07:33:43;4.93;;;1.25;;
34535;SDS011;20779;55.596;37.538;2022-08-11T07:38:41;4.82;;;1.42;;
34535;SDS011;20779;55.596;37.538;2022-08-11T07:41:19;3.08;;;1.00;;
34535;SDS011;20779;55.596;37.538;2022-08-11T07:43:49;2.60;;;1.00;;
34535;SDS011;20779;55.596;37.538;2022-08-11T07:46:21;3.30;;;1.17;;
34535;SDS011;20779;55.596;37.538;2022-08-11T07:49:07;6.18;;;1.52;;
34535;SDS011;20779;55.596;37.538;2022-08-11T07:51:53;7.22;;;1.17;;
34535;SDS011;20779;55.596;37.538;2022-08-11T07:54:39;5.28;;;1.58;;
34535;SDS011;20779;55.596;37.538;2022-08-11T07:57:09;2.40;;;1.00;;
34535;SDS011;20779;55.596;37.538;2022-08-11T07:59:55;2.72;;;1.00;;
34535;SDS011;20779;55.596;37.538;2022-08-11T08:02:44;6.03;;;1.20;;
34535;SDS011;20779;55.596;37.538;2022-08-11T08:05:29;2.22;;;1.13;;
34535;SDS011;20779;55.596;37.538;2022-08-11T08:08:14;2.58;;;1.10;;
34535;SDS011;20779;55.596;37.538;2022-08-11T08:10:59;3.92;;;1.08;;
34535;SDS011;20779;55.596;37.538;2022-08-11T08:13:45;2.70;;;1.17;;
34535;SDS011;20779;55.596;37.538;2022-08-11T08:16:30;4.55;;;1.30;;
34535;SDS011;20779;55.596;37.538;2022-08-11T08:19:16;3.25;;;1.60;;
34535;SDS011;20779;55.596;37.538;2022-08-11T08:21:44;6.35;;;1.50;;
34535;SDS011;20779;55.596;37.538;2022-08-11T08:24:12;6.30;;;1.27;;
34535;SDS011;20779;55.596;37.538;2022-08-11T08:26:41;2.65;;;0.93;;
34535;SDS011;20779;55.596;37.538;2022-08-11T08:29:24;7.72;;;1.30;;
34535;SDS011;20779;55.596;37.538;2022-08-11T08:32:14;2.33;;;1.20;;
34535;SDS011;20779;55.596;37.538;2022-08-11T08:34:42;4.60;;;1.60;;
34535;SDS011;20779;55.596;37.538;2022-08-11T08:37:09;2.30;;;1.00;;
34535;SDS011;20779;55.596;37.538;2022-08-11T08:39:36;2.15;;;1.05;;
34535;SDS011;20779;55.596;37.538;2022-08-11T08:42:06;3.90;;;1.20;;
34535;SDS011;20779;55.596;37.538;2022-08-11T08:44:38;1.65;;;1.10;;
34535;SDS011;20779;55.596;37.538;2022-08-11T08:47:12;2.83;;;1.08;;
34535;SDS011;20779;55.596;37.538;2022-08-11T08:49:48;3.22;;;1.10;;
34535;SDS011;20779;55.596;37.538;2022-08-11T08:52:18;3.22;;;0.90;;
34535;SDS011;20779;55.596;37.538;2022-08-11T08:54:48;2.70;;;1.13;;
34535;SDS011;20779;55.596;37.538;2022-08-11T08:57:21;3.50;;;1.15;;
34535;SDS011;20779;55.596;37.538;2022-08-11T08:59:48;2.72;;;0.98;;
34535;SDS011;20779;55.596;37.538;2022-08-11T09:02:16;3.80;;;1.10;;
34535;SDS011;20779;55.596;37.538;2022-08-11T09:04:45;2.40;;;1.23;;
34535;SDS011;20779;55.596;37.538;2022-08-11T09:07:13;2.75;;;1.10;;
34535;SDS011;20779;55.596;37.538;2022-08-11T09:09:43;3.08;;;1.10;;
34535;SDS011;20779;55.596;37.538;2022-08-11T09:12:13;4.00;;;0.95;;
34535;SDS011;20779;55.596;37.538;2022-08-11T09:14:43;4.38;;;1.05;;
34535;SDS011;20779;55.596;37.538;2022-08-11T09:17:30;2.97;;;1.00;;
34535;SDS011;20779;55.596;37.538;2022-08-11T09:20:22;4.55;;;1.20;;
34535;SDS011;20779;55.596;37.538;2022-08-11T09:22:54;2.63;;;1.08;;
34535;SDS011;20779;55.596;37.538;2022-08-11T09:25:41;4.18;;;0.95;;
34535;SDS011;20779;55.596;37.538;2022-08-11T09:28:28;2.33;;;1.20;;
34535;SDS011;20779;55.596;37.538;2022-08-11T09:30:56;4.47;;;1.17;;
34535;SDS011;20779;55.596;37.538;2022-08-11T09:33:25;3.22;;;1.30;;
34535;SDS011;20779;55.596;37.538;2022-08-11T09:35:54;1.60;;;1.05;;
34535;SDS011;20779;55.596;37.538;2022-08-11T09:38:43;2.70;;;1.20;;
34535;SDS011;20779;55.596;37.538;2022-08-11T09:41:28;5.22;;;1.30;;
34535;SDS011;20779;55.596;37.538;2022-08-11T09:43:55;4.65;;;1.48;;
34535;SDS011;20779;55.596;37.538;2022-08-11T09:46:40;3.45;;;1.10;;
34535;SDS011;20779;55.596;37.538;2022-08-11T09:49:07;6.22;;;1.30;;
34535;SDS011;20779;55.596;37.538;2022-08-11T09:51:34;4.07;;;1.40;;
34535;SDS011;20779;55.596;37.538;2022-08-11T09:54:01;6.13;;;1.20;;
34535;SDS011;20779;55.596;37.538;2022-08-11T09:56:32;4.05;;;1.30;;
34535;SDS011;20779;55.596;37.538;2022-08-11T09:59:30;2.70;;;1.20;;
34535;SDS011;20779;55.596;37.538;2022-08-11T10:01:59;13.00;;;1.42;;
34535;SDS011;20779;55.596;37.538;2022-08-11T10:04:30;7.97;;;1.20;;
34535;SDS011;20779;55.596;37.538;2022-08-11T10:07:09;2.80;;;1.15;;
34535;SDS011;20779;55.596;37.538;2022-08-11T10:09:45;4.25;;;1.42;;
34535;SDS011;20779;55.596;37.538;2022-08-11T10:12:55;4.57;;;1.55;;
34535;SDS011;20779;55.596;37.538;2022-08-11T10:15:34;4.05;;;1.13;;
34535;SDS011;20779;55.596;37.538;2022-08-11T10:18:04;5.38;;;1.20;;
34535;SDS011;20779;55.596;37.538;2022-08-11T10:21:04;6.53;;;1.17;;
34535;SDS011;20779;55.596;37.538;2022-08-11T10:23:54;4.35;;;1.38;;
34535;SDS011;20779;55.596;37.538;2022-08-11T10:26:42;5.10;;;1.10;;
34535;SDS011;20779;55.596;37.538;2022-08-11T10:32:28;4.63;;;1.48;;
34535;SDS011;20779;55.596;37.538;2022-08-11T10:35:15;3.05;;;1.33;;
34535;SDS011;20779;55.596;37.538;2022-08-11T10:37:43;3.22;;;1.20;;
34535;SDS011;20779;55.596;37.538;2022-08-11T10:40:16;5.55;;;1.38;;
34535;SDS011;20779;55.596;37.538;2022-08-11T10:42:48;2.95;;;1.15;;
34535;SDS011;20779;55.596;37.538;2022-08-11T10:45:30;3.35;;;1.02;;
34535;SDS011;20779;55.596;37.538;2022-08-11T10:48:27;3.85;;;1.35;;
34535;SDS011;20779;55.596;37.538;2022-08-11T10:50:56;2.55;;;1.20;;
34535;SDS011;20779;55.596;37.538;2022-08-11T10:53:49;2.20;;;1.27;;
34535;SDS011;20779;55.596;37.538;2022-08-11T10:56:36;5.10;;;1.20;;
34535;SDS011;20779;55.596;37.538;2022-08-11T10:59:23;4.20;;;1.65;;
34535;SDS011;20779;55.596;37.538;2022-08-11T11:01:52;3.63;;;1.20;;
34535;SDS011;20779;55.596;37.538;2022-08-11T11:04:23;2.50;;;1.05;;
34535;SDS011;20779;55.596;37.538;2022-08-11T11:07:37;4.72;;;1.30;;
34535;SDS011;20779;55.596;37.538;2022-08-11T11:10:19;2.47;;;1.33;;
34535;SDS011;20779;55.596;37.538;2022-08-11T11:12:46;5.80;;;1.40;;
34535;SDS011;20779;55.596;37.538;2022-08-11T11:15:40;3.53;;;1.05;;
34535;SDS011;20779;55.596;37.538;2022-08-11T11:18:30;3.45;;;1.58;;
34535;SDS011;20779;55.596;37.538;2022-08-11T11:21:14;2.35;;;1.30;;
34535;SDS011;20779;55.596;37.538;2022-08-11T11:27:23;4.82;;;1.38;;
34535;SDS011;20779;55.596;37.538;2022-08-11T11:29:50;8.75;;;1.90;;
34535;SDS011;20779;55.596;37.538;2022-08-11T11:35:37;2.45;;;1.40;;
34535;SDS011;20779;55.596;37.538;2022-08-11T11:38:13;2.45;;;1.25;;
34535;SDS011;20779;55.596;37.538;2022-08-11T11:40:41;3.90;;;1.67;;
34535;SDS011;20779;55.596;37.538;2022-08-11T11:43:08;2.15;;;1.20;;
34535;SDS011;20779;55.596;37.538;2022-08-11T11:45:35;8.77;;;1.75;;
34535;SDS011;20779;55.596;37.538;2022-08-11T11:48:01;6.22;;;1.40;;
34535;SDS011;20779;55.596;37.538;2022-08-11T11:50:33;2.08;;;0.95;;
34535;SDS011;20779;55.596;37.538;2022-08-11T11:53:05;5.07;;;1.50;;
34535;SDS011;20779;55.596;37.538;2022-08-11T11:55:34;2.83;;;1.38;;
34535;SDS011;20779;55.596;37.538;2022-08-11T11:58:02;3.58;;;1.20;;
34535;SDS011;20779;55.596;37.538;2022-08-11T12:00:48;6.07;;;1.20;;
34535;SDS011;20779;55.596;37.538;2022-08-11T12:03:35;7.88;;;1.38;;
34535;SDS011;20779;55.596;37.538;2022-08-11T12:06:02;3.28;;;1.42;;
34535;SDS011;20779;55.596;37.538;2022-08-11T12:08:29;3.70;;;1.35;;
34535;SDS011;20779;55.596;37.538;2022-08-11T12:11:01;3.30;;;1.42;;
34535;SDS011;20779;55.596;37.538;2022-08-11T12:13:50;4.35;;;1.75;;
34535;SDS011;20779;55.596;37.538;2022-08-11T12:16:19;3.67;;;1.27;;
34535;SDS011;20779;55.596;37.538;2022-08-11T12:18:48;2.22;;;1.40;;
34535;SDS011;20779;55.596;37.538;2022-08-11T12:21:18;2.28;;;1.40;;
34535;SDS011;20779;55.596;37.538;2022-08-11T12:23:45;6.18;;;1.63;;
34535;SDS011;20779;55.596;37.538;2022-08-11T12:26:30;6.57;;;1.75;;
34535;SDS011;20779;55.596;37.538;2022-08-11T12:29:17;6.70;;;1.77;;
34535;SDS011;20779;55.596;37.538;2022-08-11T12:31:45;4.03;;;1.45;;
34535;SDS011;20779;55.596;37.538;2022-08-11T12:34:13;2.75;;;1.20;;
34535;SDS011;20779;55.596;37.538;2022-08-11T12:37:02;3.65;;;1.35;;
34535;SDS011;20779;55.596;37.538;2022-08-11T12:39:34;4.00;;;1.40;;
34535;SDS011;20779;55.596;37.538;2022-08-11T12:42:21;5.60;;;1.45;;
34535;SDS011;20779;55.596;37.538;2022-08-11T12:45:08;5.00;;;1.30;;
34535;SDS011;20779;55.596;37.538;2022-08-11T12:47:52;2.00;;;1.55;;
34535;SDS011;20779;55.596;37.538;2022-08-11T12:53:32;4.10;;;1.30;;
34535;SDS011;20779;55.596;37.538;2022-08-11T12:56:04;4.22;;;1.30;;
34535;SDS011;20779;55.596;37.538;2022-08-11T12:58:50;2.90;;;1.48;;
34535;SDS011;20779;55.596;37.538;2022-08-11T13:01:18;3.85;;;1.42;;
34535;SDS011;20779;55.596;37.538;2022-08-11T13:04:03;3.38;;;1.48;;
34535;SDS011;20779;55.596;37.538;2022-08-11T13:06:49;4.20;;;1.50;;
34535;SDS011;20779;55.596;37.538;2022-08-11T13:09:16;4.22;;;1.42;;
34535;SDS011;20779;55.596;37.538;2022-08-11T13:11:43;5.18;;;1.70;;
34535;SDS011;20779;55.596;37.538;2022-08-11T13:14:28;3.30;;;1.13;;
34535;SDS011;20779;55.596;37.538;2022-08-11T13:16:57;8.52;;;1.80;;
34535;SDS011;20779;55.596;37.538;2022-08-11T13:19:42;4.32;;;1.30;;
34535;SDS011;20779;55.596;37.538;2022-08-11T13:22:10;4.38;;;1.33;;
34535;SDS011;20779;55.596;37.538;2022-08-11T13:24:37;3.38;;;1.48;;
34535;SDS011;20779;55.596;37.538;2022-08-11T13:27:04;2.75;;;1.50;;
34535;SDS011;20779;55.596;37.538;2022-08-11T13:29:31;4.40;;;1.50;;
34535;SDS011;20779;55.596;37.538;2022-08-11T13:32:00;2.22;;;1.40;;
34535;SDS011;20779;55.596;37.538;2022-08-11T13:34:28;3.97;;;1.35;;
34535;SDS011;20779;55.596;37.538;2022-08-11T13:36:59;3.33;;;1.33;;
34535;SDS011;20779;55.596;37.538;2022-08-11T13:39:29;2.85;;;1.25;;
34535;SDS011;20779;55.596;37.538;2022-08-11T13:41:58;5.85;;;1.50;;
34535;SDS011;20779;55.596;37.538;2022-08-11T13:44:32;5.60;;;1.60;;
34535;SDS011;20779;55.596;37.538;2022-08-11T13:47:03;3.65;;;2.05;;
34535;SDS011;20779;55.596;37.538;2022-08-11T13:49:34;7.80;;;1.73;;
34535;SDS011;20779;55.596;37.538;2022-08-11T13:52:02;6.47;;;2.05;;
34535;SDS011;20779;55.596;37.538;2022-08-11T13:54:30;5.13;;;1.60;;
34535;SDS011;20779;55.596;37.538;2022-08-11T13:57:00;5.60;;;1.63;;
34535;SDS011;20779;55.596;37.538;2022-08-11T13:59:31;8.60;;;1.50;;
34535;SDS011;20779;55.596;37.538;2022-08-11T14:01:58;4.97;;;1.50;;
34535;SDS011;20779;55.596;37.538;2022-08-11T14:06:57;2.65;;;1.30;;
34535;SDS011;20779;55.596;37.538;2022-08-11T14:09:31;5.88;;;1.50;;
34535;SDS011;20779;55.596;37.538;2022-08-11T14:12:03;6.45;;;1.65;;
34535;SDS011;20779;55.596;37.538;2022-08-11T14:15:00;5.22;;;1.77;;
34535;SDS011;20779;55.596;37.538;2022-08-11T14:17:32;4.82;;;1.55;;
34535;SDS011;20779;55.596;37.538;2022-08-11T14:20:02;5.28;;;1.55;;
34535;SDS011;20779;55.596;37.538;2022-08-11T14:22:32;2.88;;;1.58;;
34535;SDS011;20779;55.596;37.538;2022-08-11T14:25:03;4.10;;;1.70;;
34535;SDS011;20779;55.596;37.538;2022-08-11T14:27:30;5.07;;;1.70;;
34535;SDS011;20779;55.596;37.538;2022-08-11T14:29:56;5.40;;;1.65;;
34535;SDS011;20779;55.596;37.538;2022-08-11T14:32:24;4.18;;;1.70;;
34535;SDS011;20779;55.596;37.538;2022-08-11T14:34:51;7.00;;;1.52;;
34535;SDS011;20779;55.596;37.538;2022-08-11T14:37:18;4.78;;;1.77;;
34535;SDS011;20779;55.596;37.538;2022-08-11T14:39:51;5.43;;;1.33;;
34535;SDS011;20779;55.596;37.538;2022-08-11T14:42:20;5.07;;;1.33;;
34535;SDS011;20779;55.596;37.538;2022-08-11T14:45:14;4.50;;;1.35;;
34535;SDS011;20779;55.596;37.538;2022-08-11T14:48:00;6.15;;;1.60;;
34535;SDS011;20779;55.596;37.538;2022-08-11T14:50:32;5.05;;;1.75;;
34535;SDS011;20779;55.596;37.538;2022-08-11T14:53:00;4.68;;;1.60;;
34535;SDS011;20779;55.596;37.538;2022-08-11T14:55:30;4.67;;;1.73;;
34535;SDS011;20779;55.596;37.538;2022-08-11T14:58:21;4.00;;;1.80;;
34535;SDS011;20779;55.596;37.538;2022-08-11T15:00:53;7.05;;;1.58;;
34535;SDS011;20779;55.596;37.538;2022-08-11T15:03:25;4.68;;;1.58;;
34535;SDS011;20779;55.596;37.538;2022-08-11T15:08:31;9.80;;;1.73;;
34535;SDS011;20779;55.596;37.538;2022-08-11T15:11:22;5.20;;;1.30;;
34535;SDS011;20779;55.596;37.538;2022-08-11T15:14:12;4.82;;;2.00;;
34535;SDS011;20779;55.596;37.538;2022-08-11T15:16:59;4.22;;;1.45;;
34535;SDS011;20779;55.596;37.538;2022-08-11T15:19:32;5.03;;;1.30;;
34535;SDS011;20779;55.596;37.538;2022-08-11T15:21:58;4.65;;;1.67;;
34535;SDS011;20779;55.596;37.538;2022-08-11T15:24:43;4.03;;;1.65;;
34535;SDS011;20779;55.596;37.538;2022-08-11T15:27:11;9.98;;;1.98;;
34535;SDS011;20779;55.596;37.538;2022-08-11T15:30:00;4.68;;;1.85;;
34535;SDS011;20779;55.596;37.538;2022-08-11T15:32:47;7.75;;;1.98;;
34535;SDS011;20779;55.596;37.538;2022-08-11T15:35:34;9.13;;;2.00;;
34535;SDS011;20779;55.596;37.538;2022-08-11T15:38:21;5.97;;;1.80;;
34535;SDS011;20779;55.596;37.538;2022-08-11T15:40:48;8.57;;;2.15;;
34535;SDS011;20779;55.596;37.538;2022-08-11T15:43:38;9.25;;;2.10;;
34535;SDS011;20779;55.596;37.538;2022-08-11T15:46:29;9.32;;;1.98;;
34535;SDS011;20779;55.596;37.538;2022-08-11T15:49:01;3.72;;;2.30;;
34535;SDS011;20779;55.596;37.538;2022-08-11T15:54:14;6.57;;;1.83;;
34535;SDS011;20779;55.596;37.538;2022-08-11T15:56:47;6.15;;;2.05;;
34535;SDS011;20779;55.596;37.538;2022-08-11T15:59:17;8.10;;;2.45;;
34535;SDS011;20779;55.596;37.538;2022-08-11T16:02:04;5.13;;;1.98;;
34535;SDS011;20779;55.596;37.538;2022-08-11T16:04:35;7.95;;;1.90;;
34535;SDS011;20779;55.596;37.538;2022-08-11T16:12:30;11.82;;;2.50;;
34535;SDS011;20779;55.596;37.538;2022-08-11T16:15:01;9.35;;;2.78;;
34535;SDS011;20779;55.596;37.538;2022-08-11T16:17:55;7.50;;;2.63;;
34535;SDS011;20779;55.596;37.538;2022-08-11T16:20:28;8.75;;;3.00;;
34535;SDS011;20779;55.596;37.538;2022-08-11T16:22:58;7.50;;;2.70;;
34535;SDS011;20779;55.596;37.538;2022-08-11T16:25:28;7.13;;;2.70;;
34535;SDS011;20779;55.596;37.538;2022-08-11T16:27:59;11.27;;;2.95;;
34535;SDS011;20779;55.596;37.538;2022-08-11T16:30:33;10.85;;;2.80;;
34535;SDS011;20779;55.596;37.538;2022-08-11T16:33:02;9.35;;;2.30;;
34535;SDS011;20779;55.596;37.538;2022-08-11T16:35:31;9.45;;;3.10;;
34535;SDS011;20779;55.596;37.538;2022-08-11T16:38:19;10.65;;;3.33;;
34535;SDS011;20779;55.596;37.538;2022-08-11T16:41:03;11.85;;;3.20;;
34535;SDS011;20779;55.596;37.538;2022-08-11T16:43:34;12.75;;;3.45;;
34535;SDS011;20779;55.596;37.538;2022-08-11T16:46:25;15.93;;;3.58;;
34535;SDS011;20779;55.596;37.538;2022-08-11T16:49:11;12.70;;;2.88;;
34535;SDS011;20779;55.596;37.538;2022-08-11T16:51:44;9.68;;;3.05;;
34535;SDS011;20779;55.596;37.538;2022-08-11T16:54:11;11.32;;;3.40;;
34535;SDS011;20779;55.596;37.538;2022-08-11T16:56:42;8.98;;;2.70;;
34535;SDS011;20779;55.596;37.538;2022-08-11T16:59:29;5.30;;;2.83;;
34535;SDS011;20779;55.596;37.538;2022-08-11T17:02:01;9.15;;;2.83;;
34535;SDS011;20779;55.596;37.538;2022-08-11T17:04:46;7.97;;;3.03;;
34535;SDS011;20779;55.596;37.538;2022-08-11T17:07:36;12.48;;;2.92;;
34535;SDS011;20779;55.596;37.538;2022-08-11T17:10:25;8.52;;;3.47;;
34535;SDS011;20779;55.596;37.538;2022-08-11T17:13:31;16.52;;;4.47;;
34535;SDS011;20779;55.596;37.538;2022-08-11T17:16:06;11.68;;;3.50;;
34535;SDS011;20779;55.596;37.538;2022-08-11T17:21:14;9.43;;;2.90;;
34535;SDS011;20779;55.596;37.538;2022-08-11T17:23:46;5.97;;;2.60;;
34535;SDS011;20779;55.596;37.538;2022-08-11T17:29:16;9.55;;;4.82;;
34535;SDS011;20779;55.596;37.538;2022-08-11T17:32:01;7.22;;;3.63;;
34535;SDS011;20779;55.596;37.538;2022-08-11T17:34:51;11.38;;;4.75;;
34535;SDS011;20779;55.596;37.538;2022-08-11T17:37:42;10.40;;;4.35;;
34535;SDS011;20779;55.596;37.538;2022-08-11T17:40:10;10.45;;;3.83;;
34535;SDS011;20779;55.596;37.538;2022-08-11T17:42:39;9.73;;;3.00;;
34535;SDS011;20779;55.596;37.538;2022-08-11T17:45:26;5.03;;;2.88;;
34535;SDS011;20779;55.596;37.538;2022-08-11T17:48:25;7.72;;;3.40;;
34535;SDS011;20779;55.596;37.538;2022-08-11T17:50:58;7.32;;;3.42;;
34535;SDS011;20779;55.596;37.538;2022-08-11T17:53:31;9.23;;;3.72;;
34535;SDS011;20779;55.596;37.538;2022-08-11T17:56:26;11.00;;;4.63;;
34535;SDS011;20779;55.596;37.538;2022-08-11T17:59:14;12.32;;;5.30;;
34535;SDS011;20779;55.596;37.538;2022-08-11T18:02:01;9.30;;;3.28;;
34535;SDS011;20779;55.596;37.538;2022-08-11T18:04:49;7.50;;;3.10;;
34535;SDS011;20779;55.596;37.538;2022-08-11T18:07:17;6.78;;;2.60;;
34535;SDS011;20779;55.596;37.538;2022-08-11T18:10:05;10.48;;;3.50;;
34535;SDS011;20779;55.596;37.538;2022-08-11T18:12:52;13.13;;;3.42;;
34535;SDS011;20779;55.596;37.538;2022-08-11T18:15:39;8.60;;;3.10;;
34535;SDS011;20779;55.596;37.538;2022-08-11T18:18:26;12.63;;;2.80;;
34535;SDS011;20779;55.596;37.538;2022-08-11T18:21:13;10.48;;;2.95;;
34535;SDS011;20779;55.596;37.538;2022-08-11T18:24:02;7.30;;;2.70;;
34535;SDS011;20779;55.596;37.538;2022-08-11T18:26:52;12.40;;;2.97;;
34535;SDS011;20779;55.596;37.538;2022-08-11T18:29:39;15.48;;;4.13;;
34535;SDS011;20779;55.596;37.538;2022-08-11T18:32:27;7.68;;;3.40;;
34535;SDS011;20779;55.596;37.538;2022-08-11T18:35:15;9.07;;;3.78;;
34535;SDS011;20779;55.596;37.538;2022-08-11T18:38:02;6.22;;;3.00;;
34535;SDS011;20779;55.596;37.538;2022-08-11T18:40:49;9.63;;;3.15;;
34535;SDS011;20779;55.596;37.538;2022-08-11T18:43:36;12.15;;;3.03;;
34535;SDS011;20779;55.596;37.538;2022-08-11T18:46:26;7.13;;;3.17;;
34535;SDS011;20779;55.596;37.538;2022-08-11T18:49:18;12.90;;;3.25;;
34535;SDS011;20779;55.596;37.538;2022-08-11T18:52:07;10.57;;;2.95;;
34535;SDS011;20779;55.596;37.538;2022-08-11T18:54:54;16.83;;;4.30;;
34535;SDS011;20779;55.596;37.538;2022-08-11T18:57:44;12.38;;;3.90;;
34535;SDS011;20779;55.596;37.538;2022-08-11T19:00:31;30.15;;;6.93;;
34535;SDS011;20779;55.596;37.538;2022-08-11T19:03:19;11.82;;;3.97;;
34535;SDS011;20779;55.596;37.538;2022-08-11T19:06:06;11.43;;;3.80;;
34535;SDS011;20779;55.596;37.538;2022-08-11T19:08:56;11.00;;;3.85;;
34535;SDS011;20779;55.596;37.538;2022-08-11T19:14:31;10.35;;;3.38;;
34535;SDS011;20779;55.596;37.538;2022-08-11T19:17:18;13.05;;;3.75;;
34535;SDS011;20779;55.596;37.538;2022-08-11T19:20:04;9.43;;;3.15;;
34535;SDS011;20779;55.596;37.538;2022-08-11T19:22:57;10.00;;;3.03;;
34535;SDS011;20779;55.596;37.538;2022-08-11T19:25:43;16.08;;;3.55;;
34535;SDS011;20779;55.596;37.538;2022-08-11T19:28:29;9.50;;;2.65;;
34535;SDS011;20779;55.596;37.538;2022-08-11T19:31:16;10.18;;;2.13;;
34535;SDS011;20779;55.596;37.538;2022-08-11T19:34:03;9.15;;;2.60;;
34535;SDS011;20779;55.596;37.538;2022-08-11T19:36:50;5.93;;;2.78;;
34535;SDS011;20779;55.596;37.538;2022-08-11T19:39:36;7.57;;;2.58;;
34535;SDS011;20779;55.596;37.538;2022-08-11T19:42:24;7.15;;;2.95;;
34535;SDS011;20779;55.596;37.538;2022-08-11T19:45:10;11.27;;;3.05;;
34535;SDS011;20779;55.596;37.538;2022-08-11T19:47:55;8.68;;;2.58;;
34535;SDS011;20779;55.596;37.538;2022-08-11T19:50:40;4.35;;;2.60;;
34535;SDS011;20779;55.596;37.538;2022-08-11T19:53:26;7.85;;;2.70;;
34535;SDS011;20779;55.596;37.538;2022-08-11T19:56:12;8.57;;;2.88;;
34535;SDS011;20779;55.596;37.538;2022-08-11T19:58:58;6.10;;;2.83;;